Butte, MT

6:28 AM MST on December 08, 2019 (GMT -0700)
Pioneer | | Change Station
Active Advisory: Winter Weather Advisory

Elev 5476 ft 45.98 °N, 112.52 °W | Updated 49 seconds ago

Overcast
Overcast
32.4 °F
Feels Like 32 °F
N
0
Wind Variable Wind from NNW
Gusts 0.0 mph

Today
High -- | Low -- °F
--% Chance of Precip.
Yesterday
High -- | Low -- °F
Precip. -- in
Pressure 29.70 in
Visibility 10.0 miles
Clouds Mostly Cloudy 3500 ft
Overcast 6000 ft
Windchill 32 °F
Dew Point 30 °F
Humidity 89%
Rainfall 0.00 in
Snow Depth Not available.
7:58 AM 4:44 PM
Waxing Gibbous, 86% visible
METAR KBTM 081253Z AUTO 36003KT 10SM BKN035 OVC060 01/M03 A2967 RMK AO2 SLP056 T00111028
Pressure 29.70 in
Visibility 10.0 miles
Clouds Mostly Cloudy 3500 ft
Overcast 6000 ft
Windchill 32 °F
Dew Point 30 °F
Humidity 89%
Rainfall 0.00 in
Snow Depth Not available.
7:58 AM 4:44 PM
Waxing Gibbous, 86% visible
METAR KBTM 081253Z AUTO 36003KT 10SM BKN035 OVC060 01/M03 A2967 RMK AO2 SLP056 T00111028

Get Your Daily Forecast Email!

Thanks for signing up!

Be on the lookout for a verification email in your inbox.

You'll start receiving severe weather alerts in your inbox..

×

10-Day Weather Forecast

Almanac

Astronomy

Dec. 08, 2019 Rise Set
Actual Time
Civil Twilight
Nautical Twilight
Astronomical Twilight
Moon
Length of Visible Light
Length of Day
Tomorrow will be .
, % of the Moon is Illuminated

Today's Extremes

State Highs State Lows

Community

WunderPhotos

Category 6

Welcome to Category 6. This is the collective home for Weather Underground's featured writeups by Dr. Jeff Masters (right), Bob Henson (left), Chris Burt, and other regular contributors.

Nearby

Air Quality

  Air Quality AQ Index Pollutant
Not available.

Snow Depth

Station Depth Elevation

Earthquake Activity

City Distance Mag. Time & Date
Minimum magnitude displayed is 2.5.

Coastal Water Temperatures

Place Temperature

Stations

Nearby Weather Stations

Station Location Temp. Windchill Dew Point Humidity Wind Precip. Elev Updated Type
                   

Watches & Warnings

Winter Weather Advisory
Issued: 3:51 AM MST Dec. 8, 2019 – National Weather Service

... Winter Weather Advisory remains in effect until 6 PM MST this
evening...

* what... snow expected, especially this afternoon due to
convective snow bands. The heaviest accumulations of 2 to 5
inches will be focused under these narrow bands. Visibility may
be significantly reduced. Outside these bands lighter snowfall
amounts of around an inch are possible.

* Where... Butte, Georgetown Lake, Highway 12 Garrison to
Elliston, Homestake pass, and MacDonald Pass.

* When... from 2 am to 6 PM MST Sunday.

* Impacts... travel could be affected.